Verdi, Minnesota
Current Conditions -  °F | °C
As of 3:34 PM on Saturday 20 Dec 2014 (Local Time) from KPQN Reporting Station
Haze Haze  
Wind Chill: 25°   Ceiling: 300
Heat Index: 30°   Visibility: 1mi
Dew Point: 28°   Wind: 5mph
Humidity: 93%   Direction: 190°S
Pressure: 30"   Gusts: NA
Location:  44.066°N, 96.3302°W
Report Text: KPQN 202134Z AUTO 19004KT 1SM BR OVC003 M01/M02 A3000 RMK AO2
Loading
Personal Weather Stations






























Interactive Weather Map New forecast layout! Learn more

10-Day Weather Forecast

Advertisements
Track Severe Weather on mobile